createdAt,value
2023-04-23T00:01:53.526Z,13.60
2023-04-23T00:11:58.078Z,13.60
2023-04-23T00:22:03.079Z,13.50
2023-04-23T00:32:07.713Z,13.50
2023-04-23T00:42:13.701Z,13.50
2023-04-23T00:52:17.448Z,13.50
2023-04-23T01:02:22.618Z,13.40
2023-04-23T01:12:26.391Z,13.40
2023-04-23T01:22:31.390Z,13.30
2023-04-23T01:32:35.994Z,13.30
2023-04-23T01:42:41.750Z,13.30
2023-04-23T01:52:46.414Z,13.30
2023-04-23T02:02:52.836Z,13.20
2023-04-23T02:12:56.605Z,13.10
2023-04-23T02:23:02.234Z,13.20
2023-04-23T02:33:07.444Z,13.10
2023-04-23T02:43:12.326Z,13.10
2023-04-23T02:53:16.306Z,13.10
2023-04-23T03:03:21.479Z,13.00
2023-04-23T03:13:25.836Z,13.00
2023-04-23T03:23:30.956Z,13.00
2023-04-23T03:33:34.777Z,13.00
2023-04-23T03:43:39.679Z,12.90
2023-04-23T03:53:43.435Z,12.90
2023-04-23T04:03:48.810Z,12.90
2023-04-23T04:13:55.603Z,12.80
2023-04-23T04:24:04.658Z,12.70
2023-04-23T04:34:10.513Z,12.70
2023-04-23T04:44:16.587Z,12.70
2023-04-23T04:54:21.855Z,12.70
2023-04-23T05:04:26.847Z,12.60
2023-04-23T05:14:30.613Z,12.60
2023-04-23T05:24:38.510Z,12.80
2023-04-23T05:34:42.387Z,13.00
2023-04-23T05:44:47.584Z,13.00
2023-04-23T05:54:51.607Z,12.90
2023-04-23T06:04:56.801Z,12.90
2023-04-23T06:15:00.715Z,13.00
2023-04-23T06:25:07.312Z,13.10
2023-04-23T06:35:11.130Z,13.30
2023-04-23T06:45:16.884Z,13.60
2023-04-23T06:55:22.001Z,14.20
2023-04-23T07:05:27.172Z,14.80
2023-04-23T07:15:30.755Z,14.40
2023-04-23T07:25:35.686Z,14.20
2023-04-23T07:35:39.291Z,14.90
2023-04-23T07:45:44.278Z,15.50
2023-04-23T07:55:47.981Z,15.70
2023-04-23T08:05:52.995Z,15.40
2023-04-23T08:15:56.616Z,15.50
2023-04-23T08:26:02.843Z,15.90
2023-04-23T08:36:06.874Z,16.00
2023-04-23T08:46:14.315Z,16.80
2023-04-23T08:56:18.380Z,16.70
2023-04-23T09:06:23.473Z,16.20
2023-04-23T09:16:28.171Z,16.10
2023-04-23T09:26:33.192Z,16.00
2023-04-23T09:36:38.330Z,16.10
2023-04-23T09:46:45.464Z,16.50
2023-04-23T09:56:53.725Z,17.10
2023-04-23T10:17:11.936Z,18.20
2023-04-23T10:27:30.808Z,18.30
2023-04-23T10:37:41.340Z,18.10
2023-04-23T10:47:47.263Z,18.80
2023-04-23T10:58:01.628Z,19.20
2023-04-23T11:08:18.809Z,19.00
2023-04-23T11:18:25.290Z,19.50
2023-04-23T11:28:34.281Z,19.30
2023-04-23T11:38:38.735Z,19.50
2023-04-23T11:48:43.716Z,19.80
2023-04-23T11:58:47.541Z,19.30
2023-04-23T12:08:52.648Z,19.10
2023-04-23T12:18:56.371Z,19.00
2023-04-23T12:29:01.459Z,19.30
2023-04-23T12:39:27.365Z,19.80
2023-04-23T12:49:33.261Z,20.10
2023-04-23T12:59:36.859Z,20.40
2023-04-23T13:09:42.251Z,19.80
2023-04-23T13:19:46.421Z,19.80
2023-04-23T13:29:51.403Z,19.60
2023-04-23T13:39:54.972Z,19.50
2023-04-23T13:50:00.002Z,19.70
2023-04-23T14:00:04.197Z,19.70
2023-04-23T14:10:10.601Z,19.90
2023-04-23T14:20:15.855Z,19.70
2023-04-23T14:30:24.880Z,19.60
2023-04-23T14:40:28.461Z,20.20
2023-04-23T14:50:33.592Z,20.50
2023-04-23T15:00:37.783Z,20.50
2023-04-23T15:10:44.966Z,20.30
2023-04-23T15:20:48.916Z,20.30
2023-04-23T15:30:54.280Z,20.20
2023-04-23T15:40:57.962Z,20.00
2023-04-23T15:51:02.892Z,19.70
2023-04-23T16:01:07.307Z,19.60
2023-04-23T16:11:14.718Z,19.50
2023-04-23T16:21:18.426Z,19.70
2023-04-23T16:31:23.745Z,19.50
2023-04-23T16:41:27.512Z,19.20
2023-04-23T16:51:33.062Z,18.70
2023-04-23T17:01:36.811Z,17.80
2023-04-23T17:11:42.032Z,16.50
2023-04-23T17:21:45.890Z,16.00
2023-04-23T17:31:51.254Z,15.90
2023-04-23T17:41:57.612Z,15.80
2023-04-23T17:52:03.366Z,15.60
2023-04-23T18:02:07.222Z,15.40
2023-04-23T18:12:12.228Z,15.40
2023-04-23T18:22:16.492Z,15.10
2023-04-23T18:32:33.634Z,15.00
2023-04-23T18:42:38.366Z,14.70
2023-04-23T18:52:43.422Z,14.50
2023-04-23T19:02:48.476Z,14.40
2023-04-23T19:12:57.184Z,14.30
2023-04-23T19:23:01.372Z,14.20
2023-04-23T19:33:06.501Z,14.10
2023-04-23T19:43:12.186Z,14.00
2023-04-23T19:53:18.506Z,13.80
2023-04-23T20:03:22.443Z,13.60
2023-04-23T20:13:27.638Z,13.50
2023-04-23T20:23:31.418Z,13.40
2023-04-23T20:33:37.405Z,13.30
2023-04-23T20:43:43.670Z,12.90
2023-04-23T20:53:49.299Z,12.90
2023-04-23T21:03:53.754Z,12.90
2023-04-23T21:14:00.956Z,13.10
2023-04-23T21:24:04.993Z,13.30
2023-04-23T21:34:10.303Z,13.20
2023-04-23T21:44:14.232Z,13.20
2023-04-23T21:54:19.169Z,13.10
2023-04-23T22:04:23.092Z,13.10
2023-04-23T22:14:28.183Z,13.20
2023-04-23T22:24:31.962Z,13.30
2023-04-23T22:34:36.991Z,13.30
2023-04-23T22:44:40.711Z,13.30
2023-04-23T22:54:46.753Z,13.40
2023-04-23T23:04:50.863Z,13.30
2023-04-23T23:14:56.095Z,13.10
2023-04-23T23:24:59.990Z,13.10
2023-04-23T23:35:06.436Z,12.90
2023-04-23T23:45:11.266Z,12.70
2023-04-23T23:55:16.329Z,12.70
